Time;durP1;ratioP1;P1;durP2;ratioP2;P2;SDS_P1;SDS_P2;PMS_P1;PMS_P2;Temp;Humidity;BMP_temperature;BMP_pressure;BME280_temperature;BME280_humidity;BME280_pressure;Samples;Min_cycle;Max_cycle;Signal;HPM_P1;HPM_P2
2022/09/10 00:01:27;;;;;;;33.20;19.50;;;;;;;15.25;83.90;100108.69;129771;1273;108698;-74
2022/09/10 00:04:33;;;;;;;34.40;19.90;;;;;;;15.26;83.76;100106.59;129964;1273;108824;-72
2022/09/10 00:07:38;;;;;;;31.40;19.20;;;;;;;15.24;83.55;100102.11;129994;1272;108132;-73
2022/09/10 00:10:47;;;;;;;34.90;20.70;;;;;;;15.22;83.84;100099.73;130010;1273;107476;-74
2022/09/10 00:13:52;;;;;;;32.70;19.30;;;;;;;15.17;83.83;100097.46;129981;1272;108723;-74
2022/09/10 00:16:58;;;;;;;36.80;21.40;;;;;;;15.16;83.94;100099.15;129991;1272;108658;-74
2022/09/10 00:20:04;;;;;;;32.30;20.80;;;;;;;15.18;83.87;100094.87;128755;1273;1658452;-75
2022/09/10 00:23:10;;;;;;;32.60;20.50;;;;;;;15.17;83.84;100094.04;130093;1273;109264;-74
2022/09/10 00:26:18;;;;;;;31.10;20.10;;;;;;;15.17;83.83;100090.67;130222;1273;108778;-74
2022/09/10 00:29:23;;;;;;;31.90;20.00;;;;;;;15.13;83.77;100092.70;129942;1273;108700;-74
2022/09/10 00:32:29;;;;;;;32.50;20.80;;;;;;;15.11;84.04;100093.38;129937;1272;108680;-74
2022/09/10 00:35:35;;;;;;;33.20;20.70;;;;;;;15.08;83.98;100094.41;130058;1273;110007;-73
2022/09/10 00:38:41;;;;;;;31.40;20.10;;;;;;;15.09;83.95;100096.00;130085;1273;108737;-74
2022/09/10 00:41:51;;;;;;;36.20;21.90;;;;;;;15.11;84.03;100088.79;130142;1273;108874;-74
2022/09/10 00:45:03;;;;;;;37.30;22.10;;;;;;;15.11;84.01;100088.29;130121;1272;109078;-73
2022/09/10 00:48:16;;;;;;;29.10;18.90;;;;;;;15.11;84.13;100088.34;129641;1273;108522;-73
2022/09/10 00:51:21;;;;;;;33.40;19.80;;;;;;;15.10;84.27;100086.46;129785;1273;109078;-73
2022/09/10 00:54:29;;;;;;;33.70;21.50;;;;;;;15.08;84.17;100085.40;129794;1273;108793;-73
2022/09/10 00:57:35;;;;;;;38.30;23.10;;;;;;;15.09;84.27;100085.04;129747;1273;108804;-73
2022/09/10 01:00:41;;;;;;;34.30;22.60;;;;;;;15.09;84.24;100093.03;129879;1273;109024;-74
2022/09/10 01:03:48;;;;;;;32.50;21.40;;;;;;;15.09;84.30;100089.80;129762;1273;109003;-73
2022/09/10 01:06:55;;;;;;;36.40;21.00;;;;;;;15.07;84.09;100091.14;129808;1273;108661;-73
2022/09/10 01:10:06;;;;;;;33.10;20.60;;;;;;;15.06;84.24;100086.85;130005;1273;107702;-72
2022/09/10 01:13:24;;;;;;;34.50;21.70;;;;;;;15.06;84.34;100085.57;129776;1273;108954;-73
2022/09/10 01:16:39;;;;;;;32.50;20.60;;;;;;;15.06;84.34;100083.38;129837;1273;108741;-73
2022/09/10 01:20:16;;;;;;;35.30;22.70;;;;;;;15.06;84.13;100083.35;130008;1273;108680;-73
2022/09/10 01:23:48;;;;;;;37.10;22.50;;;;;;;15.04;84.28;100075.95;129812;1273;109036;-74
2022/09/10 01:27:13;;;;;;;37.40;21.90;;;;;;;15.01;84.41;100070.72;129826;1273;109002;-71
2022/09/10 01:30:23;;;;;;;33.50;20.30;;;;;;;14.98;84.51;100066.86;129650;1274;108888;-72
2022/09/10 01:33:36;;;;;;;33.70;22.70;;;;;;;14.98;84.70;100068.48;129719;1274;109165;-73
2022/09/10 01:36:47;;;;;;;31.70;20.10;;;;;;;15.00;84.46;100063.01;129625;1274;109824;-72
2022/09/10 01:39:55;;;;;;;39.40;23.10;;;;;;;15.00;84.49;100054.37;129543;1274;109015;-71
2022/09/10 01:43:07;;;;;;;35.60;22.40;;;;;;;15.01;84.42;100049.77;129740;1274;108996;-74
2022/09/10 01:46:27;;;;;;;33.50;21.10;;;;;;;15.00;84.64;100049.58;129613;1274;107747;-74
2022/09/10 01:49:40;;;;;;;33.20;20.60;;;;;;;15.00;84.45;100044.23;129730;1273;108670;-71
2022/09/10 01:52:52;;;;;;;;;;;;;;;14.99;84.62;100044.35;129819;1273;106822;-72
2022/09/10 01:56:03;;;;;;;30.90;18.60;;;;;;;14.98;84.57;100042.23;129784;1273;108851;-74
2022/09/10 01:59:19;;;;;;;33.00;19.80;;;;;;;14.99;84.76;100038.11;129834;1273;109005;-74
2022/09/10 02:02:29;;;;;;;30.60;19.70;;;;;;;14.97;84.88;100034.35;129813;1273;108939;-74
2022/09/10 02:05:37;;;;;;;33.60;19.30;;;;;;;14.94;84.71;100036.31;129745;1273;108726;-74
2022/09/10 02:08:48;;;;;;;26.00;15.40;;;;;;;14.93;84.83;100036.05;129735;1273;108814;-75
2022/09/10 02:11:55;;;;;;;29.50;18.30;;;;;;;14.94;84.52;100025.94;129919;1273;108993;-72
2022/09/10 02:15:31;;;;;;;30.10;17.90;;;;;;;14.97;84.62;100019.52;129636;1273;109064;-72
2022/09/10 02:19:01;;;;;;;25.70;15.80;;;;;;;14.97;84.66;100015.09;129823;1273;108816;-74
2022/09/10 02:22:09;;;;;;;32.50;18.90;;;;;;;14.97;84.56;100011.78;129855;1273;108732;-72
2022/09/10 02:25:16;;;;;;;29.30;17.00;;;;;;;14.95;84.79;100007.27;129860;1273;108993;-72
2022/09/10 02:28:21;;;;;;;30.20;18.10;;;;;;;14.93;84.79;100006.50;129676;1273;108816;-74
2022/09/10 02:31:27;;;;;;;31.50;18.50;;;;;;;14.92;84.59;100007.33;129707;1273;108711;-74
2022/09/10 02:34:34;;;;;;;31.10;18.60;;;;;;;14.92;84.87;100001.73;129767;1273;108803;-74
2022/09/10 02:37:39;;;;;;;33.10;19.10;;;;;;;14.93;84.80;99993.27;129965;1273;108769;-74
2022/09/10 02:40:47;;;;;;;30.00;18.20;;;;;;;14.91;84.79;99994.20;130053;1273;108822;-73
2022/09/10 02:43:52;;;;;;;33.20;19.50;;;;;;;14.88;85.02;99996.85;129822;1273;108959;-74
2022/09/10 02:46:58;;;;;;;35.80;19.30;;;;;;;14.86;85.00;99996.00;129671;1273;108730;-74
2022/09/10 02:50:03;;;;;;;34.00;20.10;;;;;;;14.84;85.04;99991.81;129789;1273;109068;-73
2022/09/10 02:53:12;;;;;;;33.70;19.10;;;;;;;14.86;85.14;99994.27;129748;1273;107735;-73
2022/09/10 02:56:19;;;;;;;32.70;19.10;;;;;;;14.87;84.80;99995.02;129738;1273;109158;-74
2022/09/10 02:59:25;;;;;;;33.10;19.40;;;;;;;14.87;84.98;99998.86;129778;1273;108647;-73
2022/09/10 03:02:30;;;;;;;30.40;17.50;;;;;;;14.84;85.09;99997.55;129491;1273;108805;-73
2022/09/10 03:05:37;;;;;;;29.30;16.70;;;;;;;14.81;85.10;99994.69;129811;1273;108827;-71
2022/09/10 03:08:42;;;;;;;29.50;17.80;;;;;;;14.80;85.30;99999.08;129929;1273;108822;-72
2022/09/10 03:11:48;;;;;;;29.60;17.70;;;;;;;14.81;85.01;100000.64;129925;1273;108679;-74
2022/09/10 03:14:56;;;;;;;32.60;18.80;;;;;;;14.82;85.17;99998.00;129696;1273;107714;-75
2022/09/10 03:18:01;;;;;;;31.40;18.90;;;;;;;14.80;85.29;99997.27;130050;1273;108704;-72
2022/09/10 03:21:13;;;;;;;30.00;17.90;;;;;;;14.78;85.30;100003.80;129876;1273;108998;-72
2022/09/10 03:24:19;;;;;;;33.50;17.80;;;;;;;14.77;85.48;99996.46;129691;1273;108697;-72
2022/09/10 03:27:25;;;;;;;29.80;17.60;;;;;;;14.77;85.39;99992.46;129729;1273;108717;-71
2022/09/10 03:30:31;;;;;;;31.40;18.60;;;;;;;14.80;85.42;99991.09;129859;1273;109009;-75
2022/09/10 03:33:37;;;;;;;30.10;17.40;;;;;;;14.82;85.41;99992.10;129960;1273;108755;-73
2022/09/10 03:36:43;;;;;;;29.80;17.00;;;;;;;14.83;85.46;99998.23;129699;1273;108770;-73
2022/09/10 03:39:48;;;;;;;24.60;16.10;;;;;;;14.83;85.36;100003.77;129717;1273;108867;-74
2022/09/10 03:42:54;;;;;;;25.60;16.20;;;;;;;14.83;85.46;100005.41;129810;1273;108775;-73
2022/09/10 03:46:01;;;;;;;27.80;17.10;;;;;;;14.84;85.22;100001.71;129793;1273;108727;-73
2022/09/10 03:49:07;;;;;;;26.60;16.30;;;;;;;14.84;85.29;100007.02;129742;1273;108898;-73
2022/09/10 03:52:13;;;;;;;25.90;16.20;;;;;;;14.86;85.30;100011.26;129831;1273;108787;-72
2022/09/10 03:55:21;;;;;;;24.90;14.90;;;;;;;14.85;85.37;100011.70;129823;1273;108953;-74
2022/09/10 03:58:27;;;;;;;23.90;14.90;;;;;;;14.84;85.25;100004.54;129852;1273;107818;-72
2022/09/10 04:01:32;;;;;;;29.20;18.30;;;;;;;14.84;85.38;99993.83;129922;1273;108620;-72
2022/09/10 04:04:38;;;;;;;26.20;16.30;;;;;;;14.85;85.37;99982.52;129853;1273;108904;-73
2022/09/10 04:07:44;;;;;;;28.80;17.70;;;;;;;14.87;85.36;99974.63;129728;1273;108726;-72
2022/09/10 04:10:52;;;;;;;32.30;19.50;;;;;;;14.87;85.41;99969.80;129950;1273;108303;-76
2022/09/10 04:13:58;;;;;;;27.30;17.60;;;;;;;14.86;85.31;99970.39;129820;1273;109025;-74
2022/09/10 04:17:04;;;;;;;26.90;16.40;;;;;;;14.86;85.26;99972.64;129796;1273;108764;-74
2022/09/10 04:20:11;;;;;;;25.10;16.80;;;;;;;14.86;85.42;99969.54;129674;1273;108740;-74
2022/09/10 04:23:17;;;;;;;25.70;16.40;;;;;;;14.88;85.28;99960.11;129649;1273;108857;-74
2022/09/10 04:26:24;;;;;;;23.30;15.90;;;;;;;14.91;85.35;99953.73;129848;1273;108781;-73
2022/09/10 04:29:31;;;;;;;28.00;18.00;;;;;;;14.91;85.26;99954.98;129827;1273;109009;-74
2022/09/10 04:32:37;;;;;;;24.00;15.10;;;;;;;14.89;85.40;99959.13;129776;1273;107714;-75
2022/09/10 04:35:43;;;;;;;25.60;15.80;;;;;;;14.89;85.45;99958.30;129773;1273;108701;-72
2022/09/10 04:38:50;;;;;;;28.70;17.10;;;;;;;14.91;85.43;99954.06;129904;1273;108783;-73
2022/09/10 04:41:56;;;;;;;28.50;18.30;;;;;;;14.95;85.52;99957.62;129976;1273;108779;-73
2022/09/10 04:45:02;;;;;;;24.70;16.00;;;;;;;14.98;85.38;99963.79;129821;1274;108976;-72
2022/09/10 04:48:08;;;;;;;25.20;15.70;;;;;;;14.98;85.41;99975.06;129741;1274;109063;-74
2022/09/10 04:51:16;;;;;;;24.00;15.20;;;;;;;14.98;85.44;99975.85;129628;1274;108678;-73
2022/09/10 04:54:23;;;;;;;21.10;13.40;;;;;;;14.98;85.43;99965.84;129810;1274;108679;-73
2022/09/10 04:57:29;;;;;;;23.00;14.60;;;;;;;14.99;85.32;99962.60;129683;1274;107196;-72
2022/09/10 05:00:34;;;;;;;23.00;14.70;;;;;;;15.02;85.26;99957.98;129744;1274;108868;-74
2022/09/10 05:03:40;;;;;;;24.00;14.80;;;;;;;15.04;85.45;99964.88;129674;1274;108724;-73
2022/09/10 05:06:49;;;;;;;27.70;16.80;;;;;;;15.05;85.36;99961.99;129567;1274;108844;-72
2022/09/10 05:09:55;;;;;;;25.10;16.00;;;;;;;15.05;85.32;99958.48;129801;1274;108802;-73
2022/09/10 05:13:00;;;;;;;26.60;15.00;;;;;;;15.03;85.38;99954.73;129627;1274;108664;-74
2022/09/10 05:16:07;;;;;;;38.80;24.50;;;;;;;15.04;85.46;99953.67;129411;1276;109004;-74
2022/09/10 05:19:16;;;;;;;31.40;19.30;;;;;;;15.07;85.41;99953.97;129685;1274;108690;-73
2022/09/10 05:22:26;;;;;;;33.10;20.30;;;;;;;15.07;85.22;99956.86;129713;1273;108939;-73
2022/09/10 05:25:33;;;;;;;28.10;18.20;;;;;;;15.07;85.18;99953.71;129932;1273;109010;-75
2022/09/10 05:28:39;;;;;;;24.90;15.40;;;;;;;15.05;85.23;99942.48;129764;1273;108859;-75
2022/09/10 05:31:46;;;;;;;19.80;13.40;;;;;;;15.04;85.30;99932.39;129811;1274;108685;-74
2022/09/10 05:34:52;;;;;;;22.30;13.70;;;;;;;15.05;85.31;99932.02;129724;1274;109002;-73
2022/09/10 05:37:59;;;;;;;23.90;16.00;;;;;;;15.06;85.25;99935.42;129890;1273;108818;-74
2022/09/10 05:41:05;;;;;;;23.30;14.90;;;;;;;15.09;85.59;99938.81;130064;1273;109140;-74
2022/09/10 05:44:11;;;;;;;23.70;15.20;;;;;;;15.10;85.44;99941.38;130014;1273;108950;-73
2022/09/10 05:47:16;;;;;;;22.50;14.30;;;;;;;15.11;85.55;99949.05;130035;1273;108751;-75
2022/09/10 05:50:23;;;;;;;21.50;13.10;;;;;;;15.12;85.44;99954.91;129756;1274;108949;-74
2022/09/10 05:53:30;;;;;;;22.10;14.00;;;;;;;15.13;85.34;99960.19;129887;1273;108716;-74
2022/09/10 05:56:35;;;;;;;22.50;13.50;;;;;;;15.15;85.31;99962.06;129817;1273;109142;-73
2022/09/10 05:59:41;;;;;;;25.50;15.80;;;;;;;15.16;85.32;99955.54;129853;1273;108714;-75
2022/09/10 06:02:47;;;;;;;22.60;14.60;;;;;;;15.16;85.18;99949.39;129601;1273;108697;-75
2022/09/10 06:06:05;;;;;;;21.70;13.30;;;;;;;15.16;85.10;99938.76;129950;1273;108777;-75
2022/09/10 06:09:13;;;;;;;18.90;11.60;;;;;;;15.19;85.15;99935.27;129936;1272;108670;-76
2022/09/10 06:12:25;;;;;;;19.10;12.80;;;;;;;15.22;85.31;99943.48;129955;1273;108935;-74
2022/09/10 06:15:31;;;;;;;18.80;11.90;;;;;;;15.26;85.32;99939.40;129645;1273;108895;-75
2022/09/10 06:18:37;;;;;;;22.70;13.40;;;;;;;15.29;85.33;99927.80;129782;1272;108939;-77
2022/09/10 06:21:45;;;;;;;21.30;13.70;;;;;;;15.32;85.18;99915.15;129874;1273;108952;-74
2022/09/10 06:24:52;;;;;;;21.10;13.30;;;;;;;15.34;84.95;99909.58;129768;1273;108847;-73
2022/09/10 06:27:58;;;;;;;24.70;16.20;;;;;;;15.33;84.99;99909.69;129913;1273;108954;-75
2022/09/10 06:31:05;;;;;;;24.00;16.00;;;;;;;15.33;85.06;99907.13;129807;1273;108771;-73
2022/09/10 06:34:11;;;;;;;36.80;22.30;;;;;;;15.36;85.14;99907.65;129829;1273;108790;-74
2022/09/10 06:37:17;;;;;;;29.50;18.30;;;;;;;15.38;85.31;99902.79;129813;1273;108154;-74
2022/09/10 06:40:26;;;;;;;27.30;16.60;;;;;;;15.36;85.37;99906.90;129778;1273;108749;-78
2022/09/10 06:43:35;;;;;;;21.10;13.80;;;;;;;15.35;85.24;99911.52;129590;1274;107658;-77
2022/09/10 06:46:47;;;;;;;19.20;11.90;;;;;;;15.35;85.36;99916.44;130052;1273;107717;-74
2022/09/10 06:49:57;;;;;;;21.40;12.50;;;;;;;15.37;85.27;99922.95;129770;1273;108719;-76
2022/09/10 06:53:03;;;;;;;21.60;12.70;;;;;;;15.40;85.23;99925.68;129782;1273;108700;-75
2022/09/10 06:56:12;;;;;;;18.10;12.10;;;;;;;15.41;85.10;99932.10;129938;1273;108757;-77
2022/09/10 06:59:18;;;;;;;18.50;12.50;;;;;;;15.42;84.97;99935.42;129740;1273;108817;-77
2022/09/10 07:02:26;;;;;;;14.10;9.50;;;;;;;15.41;85.14;99938.63;129850;1273;109000;-77
2022/09/10 07:05:35;;;;;;;13.60;9.70;;;;;;;15.38;85.01;99940.97;129798;1273;107742;-77
2022/09/10 07:08:41;;;;;;;13.50;9.00;;;;;;;15.38;84.92;99945.93;129958;1272;109059;-74
2022/09/10 07:11:49;;;;;;;12.20;8.20;;;;;;;15.41;84.88;99948.44;129898;1272;108691;-77
2022/09/10 07:14:56;;;;;;;12.20;9.00;;;;;;;15.44;84.84;99950.12;129811;1273;108741;-75
2022/09/10 07:18:02;;;;;;;12.40;8.90;;;;;;;15.43;84.81;99947.63;129910;1273;108797;-74
2022/09/10 07:21:13;;;;;;;11.30;8.60;;;;;;;15.43;84.62;99947.86;129897;1273;108781;-77
2022/09/10 07:24:24;;;;;;;13.30;9.00;;;;;;;15.42;84.69;99950.06;129839;1273;107702;-76
2022/09/10 07:27:40;;;;;;;14.30;9.60;;;;;;;15.43;84.65;99944.94;129938;1273;108868;-74
2022/09/10 07:30:47;;;;;;;13.50;9.00;;;;;;;15.45;84.47;99940.61;129945;1273;108804;-72
2022/09/10 07:33:54;;;;;;;10.80;7.90;;;;;;;15.47;84.46;99943.53;129637;1273;108714;-73
2022/09/10 07:37:00;;;;;;;11.50;8.30;;;;;;;15.49;84.60;99951.77;129903;1273;108819;-75
2022/09/10 07:40:10;;;;;;;12.80;8.80;;;;;;;15.50;84.65;99950.13;129917;1273;108880;-72
2022/09/10 07:43:17;;;;;;;10.40;7.30;;;;;;;15.49;84.47;99958.33;129869;1273;109714;-77
2022/09/10 07:46:24;;;;;;;8.60;6.60;;;;;;;15.49;84.47;99966.96;129784;1273;109201;-78
2022/09/10 07:49:31;;;;;;;9.80;7.80;;;;;;;15.48;84.53;99970.52;130352;1273;108731;-71
2022/09/10 07:52:37;;;;;;;9.60;7.40;;;;;;;15.52;84.46;99974.27;130571;1273;108830;-72
2022/09/10 07:55:43;;;;;;;9.80;7.60;;;;;;;15.58;84.41;99973.38;130101;1273;108766;-75
2022/09/10 07:58:49;;;;;;;11.30;8.20;;;;;;;15.61;84.42;99974.61;129923;1273;108597;-75
2022/09/10 08:01:55;;;;;;;11.70;8.30;;;;;;;15.63;84.17;99978.10;129848;1273;108916;-73
2022/09/10 08:05:03;;;;;;;10.20;7.40;;;;;;;15.59;84.28;99975.01;129784;1273;108689;-75
2022/09/10 08:08:10;;;;;;;8.80;6.50;;;;;;;15.60;84.20;99973.31;129781;1273;108719;-75
2022/09/10 08:11:17;;;;;;;10.60;7.50;;;;;;;15.65;84.28;99971.98;129794;1273;109630;-74
2022/09/10 08:14:23;;;;;;;9.90;7.40;;;;;;;15.68;84.25;99969.23;129887;1273;108715;-73
2022/09/10 08:17:32;;;;;;;9.50;7.20;;;;;;;15.71;84.05;99970.16;129989;1273;108648;-74
2022/09/10 08:20:38;;;;;;;10.00;7.40;;;;;;;15.75;84.21;99966.81;129815;1273;109071;-75
2022/09/10 08:23:50;;;;;;;9.90;6.70;;;;;;;15.75;84.04;99964.63;129987;1273;108706;-74
2022/09/10 08:26:56;;;;;;;10.10;7.00;;;;;;;15.77;84.10;99965.00;129937;1273;108827;-74
2022/09/10 08:30:02;;;;;;;10.20;7.40;;;;;;;15.78;84.02;99969.31;129919;1273;109083;-72
2022/09/10 08:33:08;;;;;;;11.30;8.10;;;;;;;15.80;84.04;99962.01;129943;1273;108555;-74
2022/09/10 08:36:17;;;;;;;13.70;8.30;;;;;;;15.84;83.92;99960.23;129728;1272;109071;-75
2022/09/10 08:39:23;;;;;;;12.00;9.00;;;;;;;15.86;83.89;99956.64;130021;1273;108533;-75
2022/09/10 08:42:38;;;;;;;16.50;13.00;;;;;;;15.90;84.11;99958.95;129954;1273;108741;-79
2022/09/10 08:45:50;;;;;;;11.50;8.60;;;;;;;15.95;83.73;99953.65;129936;1273;108955;-74
2022/09/10 08:49:07;;;;;;;12.40;8.80;;;;;;;15.95;83.82;99953.48;129813;1273;108789;-74
2022/09/10 08:52:23;;;;;;;12.50;9.30;;;;;;;15.96;83.85;99948.30;130410;1273;108676;-77
2022/09/10 08:55:33;;;;;;;13.10;8.90;;;;;;;16.05;83.90;99946.85;129926;1273;108957;-76
2022/09/10 08:58:43;;;;;;;13.70;9.60;;;;;;;16.13;83.84;99950.29;130173;1273;108778;-75
2022/09/10 09:01:55;;;;;;;11.70;8.60;;;;;;;16.17;83.54;99947.80;129832;1273;108699;-74
2022/09/10 09:05:03;;;;;;;;;;;;;;;16.17;83.51;99944.45;129941;1273;108814;-74
2022/09/10 09:08:14;;;;;;;12.20;7.60;;;;;;;16.17;83.41;99941.92;130047;1272;108077;-75
2022/09/10 09:11:29;;;;;;;9.80;7.60;;;;;;;16.21;83.50;99940.95;130063;1273;108953;-75
2022/09/10 09:14:50;;;;;;;10.80;8.00;;;;;;;16.26;83.55;99941.59;129719;1273;108743;-74
2022/09/10 09:18:09;;;;;;;11.00;8.20;;;;;;;16.31;83.18;99939.02;129909;1273;108415;-75
2022/09/10 09:21:23;;;;;;;11.10;8.20;;;;;;;16.35;83.20;99935.41;129881;1272;108716;-73
2022/09/10 09:24:41;;;;;;;14.40;9.50;;;;;;;16.37;82.89;99932.67;129980;1273;108846;-75
2022/09/10 09:27:48;;;;;;;31.10;24.70;;;;;;;16.32;82.91;99932.84;129884;1272;108901;-74
2022/09/10 09:30:58;;;;;;;15.90;12.80;;;;;;;16.29;83.06;99929.42;129830;1273;108793;-73
2022/09/10 09:34:12;;;;;;;17.00;12.80;;;;;;;16.30;82.94;99926.61;129768;1273;108903;-73
2022/09/10 09:37:21;;;;;;;15.90;11.60;;;;;;;16.28;82.93;99922.13;129828;1273;108951;-74
2022/09/10 09:40:35;;;;;;;12.60;9.60;;;;;;;16.30;82.99;99915.46;129900;1273;107579;-75
2022/09/10 09:43:53;;;;;;;18.00;13.00;;;;;;;16.31;82.89;99906.91;129935;1273;108748;-74
2022/09/10 09:46:59;;;;;;;14.00;9.90;;;;;;;16.30;82.77;99904.70;129741;1273;108777;-75
2022/09/10 09:50:07;;;;;;;13.50;9.30;;;;;;;16.26;82.73;99907.52;129742;1273;108732;-74
2022/09/10 09:53:22;;;;;;;11.00;8.20;;;;;;;16.24;82.69;99906.05;129852;1273;108762;-75
2022/09/10 09:56:35;;;;;;;14.40;9.90;;;;;;;16.23;82.69;99900.58;129775;1273;108769;-75
2022/09/10 09:59:40;;;;;;;12.00;10.00;;;;;;;16.25;82.69;99900.84;129804;1273;109016;-74
2022/09/10 10:02:45;;;;;;;14.70;12.30;;;;;;;16.28;82.59;99897.78;129902;1273;108795;-75
2022/09/10 10:06:00;;;;;;;13.50;10.60;;;;;;;16.31;82.54;99897.05;129867;1273;108856;-74
2022/09/10 10:09:19;;;;;;;13.30;10.40;;;;;;;16.33;82.43;99892.42;129902;1273;109014;-75
2022/09/10 10:12:25;;;;;;;14.60;9.80;;;;;;;16.34;82.35;99893.29;129883;1273;107816;-75
2022/09/10 10:15:40;;;;;;;11.50;8.70;;;;;;;16.33;82.31;99895.04;129840;1273;109608;-74
2022/09/10 10:18:46;;;;;;;11.40;9.10;;;;;;;16.31;82.26;99903.14;129849;1273;108956;-74
2022/09/10 10:21:53;;;;;;;11.10;9.10;;;;;;;16.29;82.26;99907.89;129819;1273;108739;-74
2022/09/10 10:24:59;;;;;;;11.60;8.90;;;;;;;16.30;82.12;99900.93;129975;1273;108597;-74
2022/09/10 10:28:12;;;;;;;10.80;8.40;;;;;;;16.27;81.96;99896.16;129947;1273;108852;-76
2022/09/10 10:31:19;;;;;;;11.10;8.50;;;;;;;16.24;82.05;99891.98;129846;1275;108779;-72
2022/09/10 10:34:52;;;;;;;10.80;8.70;;;;;;;16.22;82.01;99882.55;129974;1273;109520;-74
2022/09/10 10:38:13;;;;;;;10.20;8.10;;;;;;;16.18;82.25;99887.34;129948;1273;107617;-74
2022/09/10 10:41:50;;;;;;;11.00;8.30;;;;;;;16.21;82.08;99887.06;129878;1273;108951;-74
2022/09/10 10:45:10;;;;;;;11.90;9.10;;;;;;;16.22;81.87;99882.59;129752;1275;108987;-73
2022/09/10 10:48:23;;;;;;;11.40;8.40;;;;;;;16.23;81.89;99877.80;129888;1273;108752;-74
2022/09/10 10:51:43;;;;;;;10.90;8.50;;;;;;;16.28;81.88;99878.07;129859;1273;108989;-74
2022/09/10 10:55:02;;;;;;;9.80;8.20;;;;;;;16.32;81.77;99879.09;129816;1273;108696;-72
2022/09/10 10:58:22;;;;;;;10.70;8.70;;;;;;;16.33;81.73;99877.88;129917;1273;108890;-73
2022/09/10 11:01:33;;;;;;;10.10;7.80;;;;;;;16.34;81.78;99874.16;129935;1273;108569;-74
2022/09/10 11:04:43;;;;;;;12.30;9.50;;;;;;;16.38;81.93;99869.89;130015;1273;108584;-73
2022/09/10 11:07:51;;;;;;;10.20;8.50;;;;;;;16.41;81.61;99875.56;129888;1273;108732;-72
2022/09/10 11:11:01;;;;;;;9.40;8.10;;;;;;;16.43;81.42;99872.88;129892;1274;108622;-71
2022/09/10 11:14:19;;;;;;;11.10;9.10;;;;;;;16.48;81.50;99877.54;129955;1273;108965;-75
2022/09/10 11:17:33;;;;;;;14.50;12.20;;;;;;;16.51;81.23;99879.38;129917;1273;109161;-76
2022/09/10 11:20:44;;;;;;;12.70;10.60;;;;;;;16.49;81.12;99878.66;129797;1273;108031;-78
2022/09/10 11:23:54;;;;;;;12.20;10.40;;;;;;;16.45;81.09;99868.50;129857;1273;108615;-75
2022/09/10 11:27:06;;;;;;;12.10;10.50;;;;;;;16.42;81.35;99861.81;129986;1273;108848;-75
2022/09/10 11:30:15;;;;;;;11.00;9.50;;;;;;;16.39;81.18;99859.70;129980;1273;107731;-76
2022/09/10 11:33:27;;;;;;;13.50;10.50;;;;;;;16.35;81.07;99858.64;129992;1273;108762;-76
2022/09/10 11:36:40;;;;;;;14.80;11.50;;;;;;;16.35;81.34;99862.08;129926;1273;108665;-76
2022/09/10 11:39:51;;;;;;;13.40;11.10;;;;;;;16.37;81.22;99865.94;130013;1273;108601;-76
2022/09/10 11:43:02;;;;;;;15.20;12.20;;;;;;;16.33;80.98;99864.42;130060;1272;108583;-76
2022/09/10 11:46:13;;;;;;;11.90;10.20;;;;;;;16.31;80.86;99864.75;129920;1273;108625;-76
2022/09/10 11:49:25;;;;;;;12.00;9.90;;;;;;;16.25;80.95;99869.44;129924;1273;109528;-76
2022/09/10 11:52:32;;;;;;;19.20;17.20;;;;;;;16.22;80.95;99860.97;129954;1273;109467;-76
2022/09/10 11:56:01;;;;;;;12.90;10.10;;;;;;;16.22;81.07;99861.80;129988;1272;108208;-76
2022/09/10 11:59:23;;;;;;;12.10;9.90;;;;;;;16.24;80.99;99859.54;129833;1273;108716;-76
2022/09/10 12:03:10;;;;;;;11.30;9.80;;;;;;;16.28;81.05;99861.17;129852;1273;108975;-77
2022/09/10 12:06:22;;;;;;;12.00;10.30;;;;;;;16.31;81.14;99863.63;129670;1274;107010;-76
2022/09/10 12:09:36;;;;;;;11.00;9.50;;;;;;;16.31;81.10;99866.50;129983;1274;109590;-76
2022/09/10 12:12:44;;;;;;;12.30;10.50;;;;;;;16.29;80.98;99863.33;129970;1273;108579;-76
2022/09/10 12:15:55;;;;;;;13.50;11.30;;;;;;;16.26;81.07;99859.58;129904;1272;109215;-76
2022/09/10 12:19:04;;;;;;;11.40;9.40;;;;;;;16.24;81.24;99859.59;128873;1273;1364931;-76
2022/09/10 12:22:20;;;;;;;13.00;8.90;;;;;;;16.23;81.21;99859.61;129762;1273;108676;-76
2022/09/10 12:25:29;;;;;;;12.10;10.00;;;;;;;16.24;81.41;99855.98;129851;1274;108938;-75
2022/09/10 12:29:00;;;;;;;10.10;8.80;;;;;;;16.27;81.36;99851.23;129807;1274;108975;-75
2022/09/10 12:32:37;;;;;;;9.50;8.20;;;;;;;16.30;81.35;99850.48;129889;1274;108942;-75
2022/09/10 12:35:48;;;;;;;10.00;8.80;;;;;;;16.34;81.36;99855.73;129916;1274;107552;-76
2022/09/10 12:39:24;;;;;;;10.00;8.70;;;;;;;16.36;81.31;99861.71;129885;1274;109789;-76
2022/09/10 12:42:35;;;;;;;8.20;6.70;;;;;;;16.37;81.28;99858.02;130100;1273;108881;-75
2022/09/10 12:46:04;;;;;;;8.70;7.30;;;;;;;16.39;81.55;99854.17;130087;1273;108796;-76
2022/09/10 12:49:16;;;;;;;8.20;7.30;;;;;;;16.45;81.54;99850.02;129865;1273;108905;-76
2022/09/10 12:52:30;;;;;;;8.50;7.50;;;;;;;16.49;81.59;99849.59;129747;1274;108939;-76
2022/09/10 12:55:48;;;;;;;8.20;7.30;;;;;;;16.56;81.60;99843.67;129786;1273;108667;-76
2022/09/10 12:59:10;;;;;;;9.00;7.80;;;;;;;16.60;81.37;99834.23;129797;1273;109295;-76
2022/09/10 13:02:28;;;;;;;8.90;7.50;;;;;;;16.62;81.23;99828.52;129800;1273;108632;-76
2022/09/10 13:05:47;;;;;;;9.80;8.20;;;;;;;16.63;81.20;99828.40;129835;1273;108748;-75
2022/09/10 13:08:54;;;;;;;8.40;7.00;;;;;;;16.64;81.24;99824.84;129779;1274;109230;-76
2022/09/10 13:12:03;;;;;;;7.80;6.70;;;;;;;16.64;80.87;99827.75;129861;1273;108892;-77
2022/09/10 13:15:19;;;;;;;8.90;7.90;;;;;;;16.64;80.91;99826.80;129876;1273;108760;-75
2022/09/10 13:18:29;;;;;;;9.60;7.50;;;;;;;16.67;81.13;99827.13;129813;1273;108791;-75
2022/09/10 13:21:54;;;;;;;8.60;7.50;;;;;;;16.72;81.17;99829.17;129714;1274;108996;-76
2022/09/10 13:25:17;;;;;;;9.00;7.30;;;;;;;16.70;81.37;99825.48;129802;1274;109213;-76
2022/09/10 13:28:59;;;;;;;9.10;7.20;;;;;;;16.67;81.41;99824.30;129847;1274;108585;-76
2022/09/10 13:32:11;;;;;;;8.40;7.00;;;;;;;16.63;81.47;99820.30;129785;1274;108594;-75
2022/09/10 13:35:54;;;;;;;7.60;6.80;;;;;;;16.60;81.51;99818.03;129856;1273;108136;-75
2022/09/10 13:39:25;;;;;;;8.30;7.00;;;;;;;16.58;81.56;99816.66;129992;1273;109033;-74
2022/09/10 13:42:50;;;;;;;8.70;7.60;;;;;;;16.56;81.53;99808.74;130007;1274;108751;-73
2022/09/10 13:46:02;;;;;;;7.30;6.60;;;;;;;16.47;81.31;99800.30;129892;1271;108788;-76
2022/09/10 13:49:15;;;;;;;9.50;7.50;;;;;;;16.44;81.46;99798.30;129769;1274;108782;-74
2022/09/10 13:52:25;;;;;;;7.00;6.00;;;;;;;16.40;81.43;99794.86;129778;1274;109822;-75
2022/09/10 13:55:32;;;;;;;7.50;6.60;;;;;;;16.38;81.58;99791.95;129984;1274;107683;-78
2022/09/10 13:58:45;;;;;;;8.00;7.10;;;;;;;16.46;81.53;99789.16;129910;1273;108736;-76
2022/09/10 14:01:52;;;;;;;8.30;7.40;;;;;;;16.55;81.38;99784.74;129804;1273;108582;-76
2022/09/10 14:04:58;;;;;;;9.20;7.90;;;;;;;16.58;81.36;99782.81;129686;1273;108744;-81
2022/09/10 14:08:11;;;;;;;8.60;7.70;;;;;;;16.53;81.18;99780.06;129748;1273;108952;-75
2022/09/10 14:11:21;;;;;;;8.10;7.30;;;;;;;16.52;81.17;99776.95;129846;1273;108913;-76
2022/09/10 14:14:30;;;;;;;8.20;7.30;;;;;;;16.51;81.16;99782.58;129863;1273;108724;-77
2022/09/10 14:17:41;;;;;;;10.90;8.90;;;;;;;16.47;81.23;99782.86;129923;1273;108870;-76
2022/09/10 14:20:48;;;;;;;10.20;8.90;;;;;;;16.36;81.35;99779.77;129987;1273;108656;-75